createdAt,value
2024-02-13T00:00:40.143Z,81.08
2024-02-13T00:03:07.033Z,81.53
2024-02-13T00:05:34.422Z,82.01
2024-02-13T00:08:01.936Z,81.87
2024-02-13T00:10:29.564Z,82.75
2024-02-13T00:12:56.111Z,81.74
2024-02-13T00:15:22.744Z,83.10
2024-02-13T00:17:49.526Z,82.24
2024-02-13T00:20:16.368Z,83.10
2024-02-13T00:22:42.967Z,82.57
2024-02-13T00:25:10.383Z,82.46
2024-02-13T00:27:37.616Z,82.10
2024-02-13T00:30:04.601Z,82.48
2024-02-13T00:32:38.634Z,82.73
2024-02-13T00:35:09.599Z,82.49
2024-02-13T00:37:37.663Z,82.16
2024-02-13T00:40:11.152Z,81.88
2024-02-13T00:42:37.978Z,81.91
2024-02-13T00:45:08.491Z,82.36
2024-02-13T00:47:35.454Z,82.32
2024-02-13T00:50:03.189Z,82.65
2024-02-13T00:52:29.810Z,82.09
2024-02-13T00:54:58.054Z,82.56
2024-02-13T00:57:25.501Z,83.39
2024-02-13T00:59:52.443Z,84.05
2024-02-13T01:02:19.128Z,83.19
2024-02-13T01:04:45.868Z,82.29
2024-02-13T01:07:12.426Z,82.71
2024-02-13T01:09:38.909Z,83.40
2024-02-13T01:12:05.539Z,83.05
2024-02-13T01:14:32.417Z,83.27
2024-02-13T01:16:59.079Z,84.06
2024-02-13T01:19:25.678Z,84.39
2024-02-13T01:21:52.200Z,83.29
2024-02-13T01:24:18.678Z,83.75
2024-02-13T01:26:45.851Z,82.96
2024-02-13T01:29:15.703Z,83.49
2024-02-13T01:31:42.802Z,82.46
2024-02-13T01:34:09.454Z,84.01
2024-02-13T01:36:38.855Z,83.36
2024-02-13T01:39:05.704Z,83.61
2024-02-13T01:41:32.263Z,82.94
2024-02-13T01:43:58.922Z,83.47
2024-02-13T01:46:27.739Z,84.68
2024-02-13T01:49:00.354Z,84.13
2024-02-13T01:51:35.236Z,83.96
2024-02-13T01:54:04.656Z,84.77
2024-02-13T01:56:34.654Z,83.41
2024-02-13T01:59:02.926Z,84.56
2024-02-13T02:01:30.785Z,84.65
2024-02-13T02:04:01.296Z,84.48
2024-02-13T02:06:27.826Z,83.08
2024-02-13T02:08:54.715Z,83.59
2024-02-13T02:11:21.429Z,83.90
2024-02-13T02:13:48.427Z,83.94
2024-02-13T02:16:14.915Z,84.90
2024-02-13T02:18:42.245Z,83.37
2024-02-13T02:21:09.159Z,84.25
2024-02-13T02:23:35.944Z,83.45
2024-02-13T02:26:04.226Z,83.75
2024-02-13T02:28:31.075Z,84.11
2024-02-13T02:30:57.540Z,83.62
2024-02-13T02:33:24.144Z,84.26
2024-02-13T02:35:50.873Z,84.37
2024-02-13T02:38:17.845Z,84.21
2024-02-13T02:40:46.963Z,84.13
2024-02-13T02:43:13.492Z,84.67
2024-02-13T02:45:40.136Z,84.59
2024-02-13T02:48:07.474Z,84.79
2024-02-13T02:50:35.835Z,83.67
2024-02-13T02:53:02.437Z,83.57
2024-02-13T02:55:30.368Z,82.91
2024-02-13T02:57:57.804Z,83.33
2024-02-13T03:00:24.351Z,82.41
2024-02-13T03:02:50.941Z,82.15
2024-02-13T03:05:17.754Z,83.23
2024-02-13T03:07:46.794Z,83.74
2024-02-13T03:10:13.433Z,82.66
2024-02-13T03:12:40.163Z,83.08
2024-02-13T03:15:07.291Z,83.22
2024-02-13T03:17:34.097Z,83.78
2024-02-13T03:20:02.096Z,83.83
2024-02-13T03:22:29.272Z,83.81
2024-02-13T03:24:56.022Z,84.37
2024-02-13T03:27:22.534Z,84.43
2024-02-13T03:29:49.121Z,84.13
2024-02-13T03:32:15.759Z,83.69
2024-02-13T03:34:42.255Z,84.14
2024-02-13T03:37:09.770Z,84.57
2024-02-13T03:39:36.937Z,84.20
2024-02-13T03:42:03.712Z,83.43
2024-02-13T03:44:30.323Z,84.02
2024-02-13T03:46:56.864Z,84.40
2024-02-13T03:49:23.518Z,83.81
2024-02-13T03:51:50.441Z,84.38
2024-02-13T03:54:16.952Z,83.29
2024-02-13T03:56:43.693Z,83.15
2024-02-13T03:59:12.067Z,83.60
2024-02-13T04:01:40.106Z,84.25
2024-02-13T04:04:06.691Z,84.29
2024-02-13T04:06:34.466Z,83.52
2024-02-13T04:09:04.554Z,83.93
2024-02-13T04:11:31.619Z,84.32
2024-02-13T04:13:58.686Z,83.93
2024-02-13T04:16:25.296Z,82.90
2024-02-13T04:18:54.432Z,84.74
2024-02-13T04:21:21.290Z,83.56
2024-02-13T04:23:49.701Z,83.70
2024-02-13T04:26:25.982Z,83.47
2024-02-13T04:29:02.615Z,83.68
2024-02-13T04:31:29.099Z,82.57
2024-02-13T04:33:55.756Z,83.26
2024-02-13T04:36:22.360Z,84.22
2024-02-13T04:38:49.016Z,83.58
2024-02-13T04:41:17.796Z,83.06
2024-02-13T04:43:44.801Z,83.68
2024-02-13T04:46:11.333Z,84.48
2024-02-13T04:48:38.565Z,83.57
2024-02-13T04:51:08.711Z,83.38
2024-02-13T04:53:35.347Z,83.46
2024-02-13T04:56:01.926Z,83.91
2024-02-13T04:58:32.921Z,82.70
2024-02-13T05:01:10.701Z,83.78
2024-02-13T05:03:49.450Z,83.16
2024-02-13T05:06:35.400Z,83.97
2024-02-13T05:09:01.949Z,85.25
2024-02-13T05:11:28.555Z,84.82
2024-02-13T05:13:57.556Z,84.93
2024-02-13T05:16:26.860Z,85.50
2024-02-13T05:18:53.819Z,86.02
2024-02-13T05:21:21.965Z,84.59
2024-02-13T05:23:49.205Z,85.42
2024-02-13T05:26:16.397Z,84.10
2024-02-13T05:28:43.674Z,84.61
2024-02-13T05:31:10.243Z,84.63
2024-02-13T05:33:37.543Z,84.72
2024-02-13T05:36:05.300Z,85.12
2024-02-13T05:38:36.691Z,85.11
2024-02-13T05:41:03.674Z,85.83
2024-02-13T05:43:30.163Z,86.37
2024-02-13T05:45:57.977Z,85.09
2024-02-13T05:48:25.948Z,86.67
2024-02-13T05:50:52.604Z,85.32
2024-02-13T05:53:19.333Z,85.20
2024-02-13T05:55:45.922Z,86.28
2024-02-13T05:58:12.645Z,86.64
2024-02-13T06:00:39.201Z,86.84
2024-02-13T06:03:07.926Z,87.24
2024-02-13T06:05:35.082Z,88.38
2024-02-13T06:08:01.761Z,87.80
2024-02-13T06:10:28.322Z,87.73
2024-02-13T06:12:57.898Z,87.42
2024-02-13T06:15:24.618Z,87.36
2024-02-13T06:17:51.268Z,86.94
2024-02-13T06:20:19.285Z,86.96
2024-02-13T06:22:45.983Z,86.78
2024-02-13T06:25:13.885Z,86.98
2024-02-13T06:27:40.787Z,86.40
2024-02-13T06:30:08.339Z,86.18
2024-02-13T06:32:35.343Z,85.93
2024-02-13T06:35:01.914Z,86.01
2024-02-13T06:37:28.423Z,84.73
2024-02-13T06:39:54.994Z,84.27
2024-02-13T06:42:21.514Z,85.42
2024-02-13T06:44:48.714Z,85.07
2024-02-13T06:47:15.507Z,86.50
2024-02-13T06:49:42.161Z,86.15
2024-02-13T06:52:10.125Z,86.40
2024-02-13T06:54:36.605Z,86.70
2024-02-13T06:57:03.190Z,85.59
2024-02-13T06:59:31.057Z,84.29
2024-02-13T07:01:57.807Z,84.81
2024-02-13T07:04:24.552Z,85.19
2024-02-13T07:07:07.928Z,84.44
2024-02-13T07:09:41.048Z,83.95
2024-02-13T07:12:07.671Z,84.33
2024-02-13T07:14:34.326Z,83.11
2024-02-13T07:17:00.898Z,83.64
2024-02-13T07:19:27.647Z,84.86
2024-02-13T07:21:54.210Z,84.71
2024-02-13T07:24:20.764Z,84.79
2024-02-13T07:26:47.493Z,85.23
2024-02-13T07:29:14.081Z,85.39
2024-02-13T07:31:40.623Z,85.16
2024-02-13T07:34:07.254Z,84.30
2024-02-13T07:36:33.832Z,85.65
2024-02-13T07:39:01.546Z,84.21
2024-02-13T07:41:29.504Z,84.38
2024-02-13T07:43:56.166Z,84.55
2024-02-13T07:46:22.719Z,84.44
2024-02-13T07:48:49.728Z,84.03
2024-02-13T07:51:17.409Z,84.59
2024-02-13T07:53:44.056Z,83.23
2024-02-13T07:56:12.107Z,83.59
2024-02-13T07:58:39.750Z,83.98
2024-02-13T08:01:07.072Z,83.58
2024-02-13T08:03:35.590Z,83.75
2024-02-13T08:06:02.600Z,83.28
2024-02-13T08:08:29.884Z,83.10
2024-02-13T08:10:57.165Z,84.75
2024-02-13T08:13:23.676Z,83.96
2024-02-13T08:15:50.160Z,84.27
2024-02-13T08:18:19.198Z,84.22
2024-02-13T08:20:46.289Z,84.32
2024-02-13T08:23:13.142Z,84.53
2024-02-13T08:25:39.869Z,83.53
2024-02-13T08:28:07.092Z,83.62
2024-02-13T08:30:33.625Z,83.36
2024-02-13T08:33:00.484Z,83.48
2024-02-13T08:35:27.310Z,82.58
2024-02-13T08:37:56.065Z,82.48
2024-02-13T08:40:24.092Z,83.07
2024-02-13T08:42:50.652Z,82.06
2024-02-13T08:45:17.179Z,81.71
2024-02-13T08:47:43.813Z,80.82
2024-02-13T08:50:13.998Z,80.64
2024-02-13T08:52:40.657Z,80.00
2024-02-13T08:55:08.574Z,80.83
2024-02-13T08:57:35.126Z,81.04
2024-02-13T09:00:01.926Z,81.00
2024-02-13T09:02:28.444Z,81.06
2024-02-13T09:04:55.068Z,79.29
2024-02-13T09:07:21.602Z,79.37
2024-02-13T09:09:48.444Z,79.65
2024-02-13T09:12:14.925Z,79.98
2024-02-13T09:14:41.440Z,80.82
2024-02-13T09:17:09.188Z,80.21
2024-02-13T09:19:35.687Z,79.87
2024-02-13T09:22:02.156Z,80.74
2024-02-13T09:24:28.760Z,81.29
2024-02-13T09:26:55.460Z,80.49
2024-02-13T09:29:22.041Z,80.37
2024-02-13T09:31:48.695Z,79.93
2024-02-13T09:34:15.496Z,79.80
2024-02-13T09:36:42.564Z,79.33
2024-02-13T09:39:10.164Z,77.34
2024-02-13T09:41:38.039Z,78.03
2024-02-13T09:44:05.053Z,78.01
2024-02-13T09:46:32.720Z,77.90
2024-02-13T09:49:13.718Z,78.27
2024-02-13T09:51:41.806Z,79.21
2024-02-13T09:54:09.995Z,78.01
2024-02-13T09:56:39.679Z,77.41
2024-02-13T09:59:08.331Z,76.97
2024-02-13T10:01:36.274Z,76.91
2024-02-13T10:04:04.899Z,76.67
2024-02-13T10:06:31.592Z,77.05
2024-02-13T10:09:00.176Z,77.23
2024-02-13T10:11:32.033Z,76.38
2024-02-13T10:13:58.608Z,77.43
2024-02-13T10:16:28.732Z,76.79
2024-02-13T10:18:58.637Z,76.45
2024-02-13T10:21:26.976Z,76.93
2024-02-13T10:24:14.810Z,76.02
2024-02-13T10:26:41.698Z,77.29
2024-02-13T10:29:08.938Z,77.31
2024-02-13T10:31:36.599Z,76.40
2024-02-13T10:34:08.447Z,77.24
2024-02-13T10:36:42.482Z,76.88
2024-02-13T10:39:13.207Z,76.97
2024-02-13T10:41:41.872Z,77.25
2024-02-13T10:44:13.073Z,78.07
2024-02-13T10:46:40.750Z,77.42
2024-02-13T10:49:21.611Z,77.14
2024-02-13T10:51:50.279Z,77.62
2024-02-13T10:54:17.172Z,77.85
2024-02-13T10:56:45.464Z,77.20
2024-02-13T10:59:13.174Z,76.72
2024-02-13T11:01:42.699Z,77.63
2024-02-13T11:04:10.763Z,78.18
2024-02-13T11:06:37.553Z,77.98
2024-02-13T11:09:13.325Z,78.17
2024-02-13T11:14:22.889Z,79.10
2024-02-13T11:17:00.308Z,78.50
2024-02-13T11:19:41.267Z,78.00
2024-02-13T11:22:10.415Z,77.52
2024-02-13T11:24:50.728Z,77.44
2024-02-13T11:27:26.861Z,78.16
2024-02-13T11:30:01.031Z,77.68
2024-02-13T11:32:33.323Z,78.29
2024-02-13T11:35:00.935Z,79.02
2024-02-13T11:37:31.554Z,77.80
2024-02-13T11:39:58.606Z,76.54
2024-02-13T11:42:33.721Z,76.95
2024-02-13T11:45:09.603Z,76.59
2024-02-13T11:47:36.496Z,76.34
2024-02-13T11:50:08.393Z,76.03
2024-02-13T11:52:35.773Z,76.79
2024-02-13T11:55:02.470Z,77.63
2024-02-13T11:57:29.341Z,77.44
2024-02-13T12:00:06.489Z,76.89
2024-02-13T12:02:34.640Z,77.40
2024-02-13T12:05:01.492Z,78.04
2024-02-13T12:07:29.109Z,78.75
2024-02-13T12:09:56.084Z,77.54
2024-02-13T12:12:22.911Z,77.15
2024-02-13T12:14:53.789Z,77.51
2024-02-13T12:17:22.094Z,77.80
2024-02-13T12:19:49.159Z,78.49
2024-02-13T12:22:17.884Z,79.68
2024-02-13T12:24:48.691Z,79.57
2024-02-13T12:27:17.050Z,77.55
2024-02-13T12:29:44.578Z,77.20
2024-02-13T12:32:18.939Z,78.87
2024-02-13T12:34:49.934Z,79.33
2024-02-13T12:37:21.466Z,79.44
2024-02-13T12:39:48.800Z,79.89
2024-02-13T12:42:18.626Z,80.35
2024-02-13T12:44:45.628Z,79.50
2024-02-13T12:47:14.815Z,78.71
2024-02-13T12:49:44.593Z,79.04
2024-02-13T12:52:23.546Z,78.75
2024-02-13T12:54:51.163Z,79.23
2024-02-13T12:57:19.653Z,81.71
2024-02-13T12:59:46.163Z,81.32
2024-02-13T13:02:14.999Z,82.27
2024-02-13T13:04:42.178Z,83.40
2024-02-13T13:07:08.920Z,83.09
2024-02-13T13:09:37.306Z,83.10
2024-02-13T13:12:06.834Z,82.55
2024-02-13T13:14:35.650Z,83.61
2024-02-13T13:17:02.221Z,83.70
2024-02-13T13:19:30.570Z,83.99
2024-02-13T13:21:57.448Z,84.78
2024-02-13T13:24:24.273Z,84.46
2024-02-13T13:26:51.788Z,84.71
2024-02-13T13:29:18.885Z,84.25
2024-02-13T13:31:48.714Z,83.10
2024-02-13T13:34:21.303Z,83.24
2024-02-13T13:36:48.679Z,84.27
2024-02-13T13:39:15.254Z,83.58
2024-02-13T13:41:42.560Z,83.78
2024-02-13T13:44:14.482Z,83.13
2024-02-13T13:46:42.196Z,83.49
2024-02-13T13:49:09.023Z,84.00
2024-02-13T13:51:35.703Z,84.20
2024-02-13T13:54:02.450Z,83.90
2024-02-13T13:56:29.134Z,82.53
2024-02-13T13:58:55.633Z,81.94
2024-02-13T14:01:22.712Z,82.46
2024-02-13T14:03:49.648Z,82.20
2024-02-13T14:06:16.656Z,82.94
2024-02-13T14:08:43.408Z,82.06
2024-02-13T14:11:11.185Z,82.86
2024-02-13T14:13:37.834Z,82.03
2024-02-13T14:16:04.803Z,82.29
2024-02-13T14:18:31.928Z,82.55
2024-02-13T14:20:58.870Z,82.10
2024-02-13T14:23:25.561Z,82.13
2024-02-13T14:25:52.284Z,81.40
2024-02-13T14:28:19.499Z,81.15
2024-02-13T14:30:47.307Z,81.11
2024-02-13T14:33:14.542Z,82.14
2024-02-13T14:35:43.332Z,82.79
2024-02-13T14:38:09.944Z,84.17
2024-02-13T14:40:40.732Z,84.11
2024-02-13T14:43:08.636Z,84.09
2024-02-13T14:45:40.061Z,82.98
2024-02-13T14:48:10.461Z,84.87
2024-02-13T14:50:39.484Z,84.65
2024-02-13T14:53:07.981Z,84.72
2024-02-13T14:55:35.101Z,84.07
2024-02-13T15:00:32.379Z,84.03
2024-02-13T15:03:01.153Z,84.13
2024-02-13T15:05:28.215Z,84.29
2024-02-13T15:07:55.207Z,83.45
2024-02-13T15:10:21.779Z,84.97
2024-02-13T15:12:48.488Z,84.39
2024-02-13T15:15:18.631Z,84.06
2024-02-13T15:17:47.132Z,84.27
2024-02-13T15:20:15.811Z,84.32
2024-02-13T15:22:42.866Z,84.07
2024-02-13T15:25:10.287Z,84.50
2024-02-13T15:27:39.328Z,84.07
2024-02-13T15:30:09.418Z,84.25
2024-02-13T15:32:36.055Z,84.52
2024-02-13T15:35:06.505Z,84.50
2024-02-13T15:37:51.527Z,84.09
2024-02-13T15:40:37.064Z,83.48
2024-02-13T15:43:29.936Z,83.69
2024-02-13T15:46:14.662Z,84.19
2024-02-13T15:48:43.665Z,83.97
2024-02-13T15:51:10.541Z,84.81
2024-02-13T15:53:38.472Z,84.36
2024-02-13T15:56:06.989Z,84.81
2024-02-13T15:58:33.485Z,84.91
2024-02-13T16:01:00.728Z,84.36
2024-02-13T16:03:27.801Z,84.19
2024-02-13T16:05:56.258Z,83.32
2024-02-13T16:08:25.300Z,83.53
2024-02-13T16:10:52.502Z,84.43
2024-02-13T16:13:20.093Z,84.43
2024-02-13T16:15:47.871Z,84.04
2024-02-13T16:18:14.719Z,83.71
2024-02-13T16:20:41.634Z,84.05
2024-02-13T16:23:08.349Z,84.13
2024-02-13T16:25:35.919Z,83.43
2024-02-13T16:28:06.244Z,83.61
2024-02-13T16:30:34.584Z,83.16
2024-02-13T16:33:02.271Z,83.07
2024-02-13T16:35:29.246Z,82.78
2024-02-13T16:37:55.917Z,82.57
2024-02-13T16:40:22.922Z,82.95
2024-02-13T16:42:56.161Z,84.68
2024-02-13T16:45:25.300Z,84.04
2024-02-13T16:47:53.342Z,83.64
2024-02-13T16:50:20.183Z,82.83
2024-02-13T16:52:47.583Z,82.06
2024-02-13T16:55:14.888Z,81.90
2024-02-13T16:57:42.326Z,80.91
2024-02-13T17:00:11.735Z,80.41
2024-02-13T17:02:40.186Z,79.28
2024-02-13T17:05:12.451Z,80.80
2024-02-13T17:07:43.229Z,81.15
2024-02-13T17:10:18.961Z,81.15
2024-02-13T17:12:45.501Z,81.88
2024-02-13T17:15:14.057Z,83.09
2024-02-13T17:17:42.223Z,83.36
2024-02-13T17:20:12.850Z,83.78
2024-02-13T17:22:42.901Z,85.49
2024-02-13T17:25:11.133Z,84.49
2024-02-13T17:27:42.474Z,86.15
2024-02-13T17:30:13.850Z,85.62
2024-02-13T17:32:43.056Z,85.56
2024-02-13T17:35:10.098Z,85.94
2024-02-13T17:37:37.287Z,85.72
2024-02-13T17:40:05.421Z,86.46
2024-02-13T17:42:34.226Z,86.55
2024-02-13T17:45:00.827Z,86.17
2024-02-13T17:47:27.419Z,86.75
2024-02-13T17:49:54.417Z,86.20
2024-02-13T17:52:21.009Z,85.93
2024-02-13T17:54:47.557Z,86.47
2024-02-13T17:57:14.081Z,86.10
2024-02-13T17:59:40.602Z,85.72
2024-02-13T18:02:08.634Z,84.54
2024-02-13T18:04:36.275Z,85.28
2024-02-13T18:07:03.114Z,85.19
2024-02-13T18:09:29.635Z,84.89
2024-02-13T18:11:59.788Z,84.91
2024-02-13T18:14:28.476Z,84.58
2024-02-13T18:16:55.172Z,84.36
2024-02-13T18:19:22.308Z,84.77
2024-02-13T18:21:52.136Z,84.75
2024-02-13T18:24:18.929Z,84.97
2024-02-13T18:26:46.883Z,85.00
2024-02-13T18:29:13.539Z,85.09
2024-02-13T18:31:40.152Z,85.26
2024-02-13T18:34:06.923Z,85.01
2024-02-13T18:36:33.610Z,85.77
2024-02-13T18:39:00.252Z,86.21
2024-02-13T18:41:27.215Z,85.93
2024-02-13T18:43:53.783Z,86.60
2024-02-13T18:46:20.591Z,85.32
2024-02-13T18:48:47.516Z,85.43
2024-02-13T18:51:17.576Z,85.07
2024-02-13T18:53:44.145Z,85.16
2024-02-13T18:56:10.649Z,85.55
2024-02-13T18:58:39.641Z,85.92
2024-02-13T19:01:06.382Z,85.96
2024-02-13T19:03:32.959Z,85.70
2024-02-13T19:06:04.594Z,85.69
2024-02-13T19:08:32.637Z,85.35
2024-02-13T19:10:59.715Z,85.73
2024-02-13T19:13:29.671Z,85.06
2024-02-13T19:15:56.199Z,84.84
2024-02-13T19:18:22.842Z,85.49
2024-02-13T19:20:52.919Z,85.00
2024-02-13T19:23:22.826Z,85.92
2024-02-13T19:25:49.720Z,86.00
2024-02-13T19:28:17.925Z,85.44
2024-02-13T19:30:46.867Z,85.75
2024-02-13T19:33:14.511Z,85.35
2024-02-13T19:35:41.830Z,86.12
2024-02-13T19:38:10.846Z,86.06
2024-02-13T19:40:39.411Z,85.79
2024-02-13T19:43:05.898Z,85.78
2024-02-13T19:45:32.560Z,86.23
2024-02-13T19:47:59.142Z,85.31
2024-02-13T19:50:25.669Z,84.98
2024-02-13T19:52:52.177Z,86.31
2024-02-13T19:55:20.008Z,85.63
2024-02-13T19:57:46.554Z,84.92
2024-02-13T20:00:14.082Z,85.35
2024-02-13T20:02:40.682Z,85.25
2024-02-13T20:05:07.462Z,85.57
2024-02-13T20:07:38.490Z,85.12
2024-02-13T20:10:06.812Z,84.87
2024-02-13T20:12:33.458Z,84.85
2024-02-13T20:15:00.467Z,84.79
2024-02-13T20:17:27.628Z,84.52
2024-02-13T20:19:54.218Z,83.99
2024-02-13T20:22:20.732Z,83.81
2024-02-13T20:24:48.578Z,82.61
2024-02-13T20:27:15.153Z,83.00
2024-02-13T20:29:43.752Z,83.67
2024-02-13T20:32:10.632Z,82.39
2024-02-13T20:34:38.352Z,83.37
2024-02-13T20:37:05.122Z,83.75
2024-02-13T20:39:31.749Z,84.07
2024-02-13T20:41:59.897Z,84.05
2024-02-13T20:44:27.977Z,83.23
2024-02-13T20:46:55.072Z,83.44
2024-02-13T20:49:23.856Z,84.49
2024-02-13T20:51:50.407Z,84.43
2024-02-13T20:54:17.129Z,83.78
2024-02-13T20:56:49.845Z,83.59
2024-02-13T20:59:18.665Z,84.08
2024-02-13T21:01:48.588Z,82.32
2024-02-13T21:04:15.236Z,83.79
2024-02-13T21:06:44.773Z,84.45
2024-02-13T21:09:13.154Z,83.74
2024-02-13T21:11:40.853Z,83.20
2024-02-13T21:14:07.771Z,83.43
2024-02-13T21:16:34.499Z,82.86
2024-02-13T21:19:02.078Z,83.26
2024-02-13T21:21:47.494Z,83.72
2024-02-13T21:24:14.305Z,83.36
2024-02-13T21:26:41.298Z,83.29
2024-02-13T21:29:08.539Z,82.98
2024-02-13T21:31:35.607Z,82.63
2024-02-13T21:34:06.862Z,83.11
2024-02-13T21:36:35.876Z,83.07
2024-02-13T21:39:08.451Z,82.92
2024-02-13T21:41:36.129Z,82.85
2024-02-13T21:44:12.875Z,82.41
2024-02-13T21:46:39.405Z,81.76
2024-02-13T21:49:07.766Z,82.37
2024-02-13T21:51:34.413Z,81.84
2024-02-13T21:54:01.872Z,82.56
2024-02-13T21:56:28.611Z,82.83
2024-02-13T21:58:56.274Z,81.64
2024-02-13T22:01:22.854Z,81.84
2024-02-13T22:03:49.734Z,81.75
2024-02-13T22:06:16.291Z,83.27
2024-02-13T22:08:44.160Z,82.57
2024-02-13T22:11:10.824Z,81.90
2024-02-13T22:13:37.484Z,82.06
2024-02-13T22:16:05.204Z,81.53
2024-02-13T22:18:31.831Z,81.84
2024-02-13T22:20:58.757Z,81.89
2024-02-13T22:23:25.842Z,82.51
2024-02-13T22:25:52.756Z,81.33
2024-02-13T22:28:19.238Z,80.85
2024-02-13T22:30:47.157Z,81.32
2024-02-13T22:33:14.238Z,81.48
2024-02-13T22:35:41.868Z,81.54
2024-02-13T22:38:08.687Z,81.52
2024-02-13T22:40:35.279Z,81.65
2024-02-13T22:43:03.206Z,81.78
2024-02-13T22:45:29.807Z,82.47
2024-02-13T22:48:02.059Z,82.01
2024-02-13T22:50:29.726Z,81.52
2024-02-13T22:52:59.968Z,80.83
2024-02-13T22:55:30.497Z,81.01
2024-02-13T22:57:58.460Z,81.22
2024-02-13T23:00:43.996Z,82.01
2024-02-13T23:03:10.959Z,82.20
2024-02-13T23:05:38.776Z,82.13
2024-02-13T23:08:06.949Z,82.29
2024-02-13T23:10:33.951Z,83.46
2024-02-13T23:13:00.527Z,82.76
2024-02-13T23:15:27.139Z,83.07
2024-02-13T23:17:53.844Z,82.92
2024-02-13T23:20:22.560Z,82.38
2024-02-13T23:22:53.077Z,83.37
2024-02-13T23:25:21.137Z,83.04
2024-02-13T23:27:48.455Z,82.41
2024-02-13T23:30:15.758Z,81.74
2024-02-13T23:32:42.939Z,82.02
2024-02-13T23:35:09.864Z,82.27
2024-02-13T23:37:36.394Z,82.34
2024-02-13T23:40:12.881Z,82.88
2024-02-13T23:42:39.973Z,82.39
2024-02-13T23:45:08.120Z,82.03
2024-02-13T23:47:34.743Z,81.17
2024-02-13T23:50:01.757Z,80.97
2024-02-13T23:52:28.417Z,80.47
2024-02-13T23:54:55.205Z,80.50
2024-02-13T23:57:21.795Z,80.71
2024-02-13T23:59:48.533Z,80.47
